Time;durP1;ratioP1;P1;durP2;ratioP2;P2;SDS_P1;SDS_P2;PMS_P1;PMS_P2;Temp;Humidity;BMP_temperature;BMP_pressure;BME280_temperature;BME280_humidity;BME280_pressure;Samples;Min_cycle;Max_cycle;Signal;HPM_P1;HPM_P2
2022/01/24 00:00:54;;;;;;;19.45;6.32;;;;;;;;;;5094552;28;20063;-80
2022/01/24 00:03:20;;;;;;;18.60;6.95;;;;;;;;;;5093393;28;20025;-81
2022/01/24 00:05:47;;;;;;;14.48;5.97;;;;;;;;;;5094827;28;20047;-77
2022/01/24 00:08:13;;;;;;;26.00;8.60;;;;;;;;;;5093232;28;20073;-79
2022/01/24 00:10:40;;;;;;;34.10;11.85;;;;;;;;;;5093174;28;20028;-71
2022/01/24 00:18:30;;;;;;;24.40;10.30;;;;;;;;;;5094655;28;20116;-78
2022/01/24 00:26:46;;;;;;;15.00;6.93;;;;;;;;;;5094304;28;20046;-79
2022/01/24 00:29:13;;;;;;;20.30;8.77;;;;;;;;;;5092893;28;20500;-71
2022/01/24 00:31:39;;;;;;;20.48;7.53;;;;;;;;;;5092890;28;20033;-77
2022/01/24 00:34:06;;;;;;;16.85;7.70;;;;;;;;;;5093935;28;20024;-80
2022/01/24 00:36:32;;;;;;;19.13;7.60;;;;;;;;;;5093976;28;20041;-71
2022/01/24 00:38:59;;;;;;;16.85;7.25;;;;;;;;;;5094553;28;20081;-80
2022/01/24 00:41:25;;;;;;;15.57;7.50;;;;;;;;;;5092676;28;20055;-77
2022/01/24 00:46:45;;;;;;;18.77;8.27;;;;;;;;;;5082725;28;20063;-70
2022/01/24 00:57:00;;;;;;;17.35;8.13;;;;;;;;;;5093854;28;20115;-79
2022/01/24 00:59:27;;;;;;;15.52;7.95;;;;;;;;;;5093705;28;20020;-72
2022/01/24 01:01:53;;;;;;;17.70;7.90;;;;;;;;;;5092425;28;20032;-80
2022/01/24 01:04:23;;;;;;;18.63;8.85;;;;;;;;;;5092488;28;20031;-79
2022/01/24 01:06:50;;;;;;;19.45;8.23;;;;;;;;;;5092476;28;20028;-79
2022/01/24 01:18:18;;;;;;;20.02;8.05;;;;;;;;;;5093645;28;20503;-79
2022/01/24 01:20:24;;;;;;;18.17;7.88;;;;;;;;;;5089183;28;20040;-79
2022/01/24 01:22:50;;;;;;;19.10;8.93;;;;;;;;;;5092455;28;20036;-80
2022/01/24 01:25:17;;;;;;;17.25;8.30;;;;;;;;;;5093779;28;20024;-81
2022/01/24 01:27:46;;;;;;;16.98;7.03;;;;;;;;;;5093227;28;20083;-80
2022/01/24 01:30:22;;;;;;;21.52;8.80;;;;;;;;;;5092218;28;20024;-79
2022/01/24 01:33:04;;;;;;;17.80;7.40;;;;;;;;;;5093458;28;20483;-80
2022/01/24 01:52:34;;;;;;;17.13;8.65;;;;;;;;;;5098302;28;20380;-80
2022/01/24 01:55:25;;;;;;;16.05;7.97;;;;;;;;;;5095941;28;20016;-80
2022/01/24 01:57:51;;;;;;;17.35;8.48;;;;;;;;;;5095791;28;20035;-80
2022/01/24 02:00:17;;;;;;;22.00;9.88;;;;;;;;;;5097843;28;20028;-78
2022/01/24 02:02:43;;;;;;;21.83;10.15;;;;;;;;;;5095786;28;20024;-80
2022/01/24 02:05:09;;;;;;;16.42;8.45;;;;;;;;;;5095609;28;20028;-78
2022/01/24 02:07:45;;;;;;;19.88;9.40;;;;;;;;;;5095676;28;20062;-72
2022/01/24 02:10:12;;;;;;;19.40;9.25;;;;;;;;;;5095551;28;20016;-80
2022/01/24 02:12:38;;;;;;;16.52;7.72;;;;;;;;;;5096682;28;20042;-79
2022/01/24 02:15:04;;;;;;;21.85;9.35;;;;;;;;;;5095470;28;20020;-77
2022/01/24 02:18:11;;;;;;;21.67;9.80;;;;;;;;;;5097198;28;20461;-80
2022/01/24 02:20:41;;;;;;;18.70;9.43;;;;;;;;;;5095191;28;20028;-79
2022/01/24 02:23:37;;;;;;;24.75;10.90;;;;;;;;;;5095456;28;20115;-72
2022/01/24 02:26:05;;;;;;;24.55;9.93;;;;;;;;;;5096480;28;20392;-78
2022/01/24 02:28:46;;;;;;;23.58;10.32;;;;;;;;;;5095313;28;20039;-80
2022/01/24 02:31:37;;;;;;;22.77;10.05;;;;;;;;;;5095257;28;20039;-80
2022/01/24 02:34:05;;;;;;;26.33;11.07;;;;;;;;;;5095242;28;20024;-79
2022/01/24 02:36:31;;;;;;;24.35;10.20;;;;;;;;;;5095050;28;20034;-79
2022/01/24 02:50:23;;;;;;;27.83;9.35;;;;;;;;;;5096424;28;20551;-80
2022/01/24 02:52:49;;;;;;;23.90;10.70;;;;;;;;;;5094834;28;20107;-72
2022/01/24 02:55:15;;;;;;;22.63;10.27;;;;;;;;;;5094876;28;20100;-80
2022/01/24 02:57:41;;;;;;;24.75;10.93;;;;;;;;;;5096154;28;20027;-79
2022/01/24 03:00:08;;;;;;;23.30;10.70;;;;;;;;;;5094498;28;20075;-80
2022/01/24 03:02:34;;;;;;;23.67;11.15;;;;;;;;;;5095888;28;20039;-79
2022/01/24 03:05:00;;;;;;;23.27;10.63;;;;;;;;;;5095833;28;20024;-72
2022/01/24 03:07:27;;;;;;;22.10;9.50;;;;;;;;;;5095740;28;20107;-79
2022/01/24 03:09:55;;;;;;;23.52;10.60;;;;;;;;;;5094412;28;20154;-80
2022/01/24 03:12:40;;;;;;;21.33;10.40;;;;;;;;;;5094415;28;20460;-78
2022/01/24 03:15:06;;;;;;;19.92;10.25;;;;;;;;;;5094320;28;20024;-76
2022/01/24 03:17:32;;;;;;;21.85;9.45;;;;;;;;;;5095563;28;20420;-80
2022/01/24 03:19:59;;;;;;;23.98;10.38;;;;;;;;;;5094134;28;20472;-73
2022/01/24 03:22:25;;;;;;;22.77;10.27;;;;;;;;;;5094166;28;20544;-80
2022/01/24 03:24:51;;;;;;;22.65;10.65;;;;;;;;;;5094174;28;20480;-71
2022/01/24 03:27:17;;;;;;;21.23;9.15;;;;;;;;;;5093853;28;20056;-78
2022/01/24 03:29:43;;;;;;;21.67;10.38;;;;;;;;;;5094110;28;20024;-80
2022/01/24 03:32:10;;;;;;;22.95;9.80;;;;;;;;;;5095871;28;20039;-79
2022/01/24 03:34:36;;;;;;;20.25;9.95;;;;;;;;;;5093981;28;20060;-78
2022/01/24 03:37:02;;;;;;;23.60;10.80;;;;;;;;;;5093946;28;20082;-79
2022/01/24 03:39:28;;;;;;;23.25;10.18;;;;;;;;;;5093932;28;20045;-76
2022/01/24 03:41:54;;;;;;;20.75;9.25;;;;;;;;;;5095628;28;20024;-81
2022/01/24 03:44:21;;;;;;;25.77;11.57;;;;;;;;;;5095008;28;20453;-79
2022/01/24 03:52:10;;;;;;;24.63;11.32;;;;;;;;;;5094905;28;20062;-80
2022/01/24 03:54:36;;;;;;;24.90;11.60;;;;;;;;;;5093657;28;20106;-73
2022/01/24 03:57:04;;;;;;;27.42;13.18;;;;;;;;;;5093552;28;20050;-80
2022/01/24 03:59:30;;;;;;;27.67;12.13;;;;;;;;;;5094240;28;20020;-79
2022/01/24 04:01:58;;;;;;;33.25;15.00;;;;;;;;;;5093403;28;20080;-78
2022/01/24 04:04:25;;;;;;;33.08;14.57;;;;;;;;;;5094180;28;20035;-79
2022/01/24 04:06:51;;;;;;;35.33;14.57;;;;;;;;;;5093391;28;20118;-75
2022/01/24 04:09:17;;;;;;;28.73;12.93;;;;;;;;;;5094278;28;20031;-80
2022/01/24 04:11:44;;;;;;;28.92;13.80;;;;;;;;;;5093244;28;20138;-79
2022/01/24 04:14:25;;;;;;;28.58;13.10;;;;;;;;;;5093145;28;20472;-78
2022/01/24 04:22:09;;;;;;;29.98;12.73;;;;;;;;;;5094293;28;20111;-70
2022/01/24 04:24:36;;;;;;;26.42;12.75;;;;;;;;;;5094870;28;20072;-80
2022/01/24 04:27:02;;;;;;;30.48;13.55;;;;;;;;;;5092821;28;20048;-80
2022/01/24 04:29:29;;;;;;;24.73;12.07;;;;;;;;;;5092887;28;20024;-80
2022/01/24 04:31:55;;;;;;;30.67;12.50;;;;;;;;;;5094155;28;20032;-79
2022/01/24 04:34:21;;;;;;;31.80;12.05;;;;;;;;;;5092822;28;20020;-80
2022/01/24 04:36:48;;;;;;;34.05;13.18;;;;;;;;;;5094342;28;20451;-79
2022/01/24 04:39:15;;;;;;;29.75;13.55;;;;;;;;;;5092756;28;20111;-80
2022/01/24 04:41:45;;;;;;;29.13;12.13;;;;;;;;;;5093820;28;20476;-80
2022/01/24 04:44:41;;;;;;;27.30;12.90;;;;;;;;;;5093943;28;20372;-79
2022/01/24 04:47:15;;;;;;;33.40;12.38;;;;;;;;;;5093881;28;20055;-78
2022/01/24 04:54:53;;;;;;;34.03;16.45;;;;;;;;;;5093816;28;20031;-71
2022/01/24 04:57:22;;;;;;;31.25;15.07;;;;;;;;;;5093878;28;20103;-77
2022/01/24 04:59:50;;;;;;;36.20;15.50;;;;;;;;;;5093182;28;20036;-80
2022/01/24 05:02:17;;;;;;;32.88;13.45;;;;;;;;;;5093679;28;20028;-78
2022/01/24 05:04:43;;;;;;;33.08;15.25;;;;;;;;;;5093691;28;20468;-80
2022/01/24 05:07:09;;;;;;;45.45;18.58;;;;;;;;;;5093289;28;20060;-79
2022/01/24 05:23:57;;;;;;;30.17;12.20;;;;;;;;;;5097803;28;20497;-81
2022/01/24 05:26:16;;;;;;;25.90;11.63;;;;;;;;;;5095213;28;20040;-79
2022/01/24 05:28:42;;;;;;;29.05;10.35;;;;;;;;;;5097722;28;20035;-79
2022/01/24 05:31:08;;;;;;;25.25;11.70;;;;;;;;;;5096387;28;20082;-80
2022/01/24 05:33:34;;;;;;;27.23;12.07;;;;;;;;;;5097565;28;20028;-79
2022/01/24 05:36:01;;;;;;;27.10;12.18;;;;;;;;;;5096188;28;20388;-79
2022/01/24 05:38:27;;;;;;;24.10;10.27;;;;;;;;;;5096223;28;20020;-80
2022/01/24 05:40:53;;;;;;;26.38;9.80;;;;;;;;;;5097668;28;20036;-79
2022/01/24 05:43:19;;;;;;;23.58;9.32;;;;;;;;;;5096920;28;20024;-75
2022/01/24 05:45:46;;;;;;;18.92;7.68;;;;;;;;;;5097837;28;20040;-79
2022/01/24 05:48:12;;;;;;;19.10;8.85;;;;;;;;;;5096807;28;20070;-79
2022/01/24 05:50:38;;;;;;;18.65;7.88;;;;;;;;;;5097727;28;20566;-77
2022/01/24 05:53:04;;;;;;;18.88;8.52;;;;;;;;;;5094638;28;20035;-76
2022/01/24 05:55:30;;;;;;;21.42;8.93;;;;;;;;;;5095667;28;20028;-76
2022/01/24 05:57:56;;;;;;;15.70;7.45;;;;;;;;;;5097190;28;20027;-76
2022/01/24 06:00:23;;;;;;;15.45;6.32;;;;;;;;;;5095631;28;20039;-78
2022/01/24 06:02:49;;;;;;;22.25;8.20;;;;;;;;;;5095614;28;20517;-77
2022/01/24 06:05:16;;;;;;;20.92;8.70;;;;;;;;;;5095235;28;20034;-77
2022/01/24 06:07:42;;;;;;;20.80;8.55;;;;;;;;;;5095529;28;20482;-77
2022/01/24 06:10:08;;;;;;;24.30;8.65;;;;;;;;;;5095555;28;20019;-77
2022/01/24 06:12:34;;;;;;;24.70;9.27;;;;;;;;;;5096927;28;20036;-76
2022/01/24 06:15:02;;;;;;;36.58;19.50;;;;;;;;;;5096728;28;20087;-78
2022/01/24 06:17:28;;;;;;;21.30;9.25;;;;;;;;;;5095186;28;20083;-78
2022/01/24 06:19:54;;;;;;;21.20;8.73;;;;;;;;;;5095208;28;20472;-78
2022/01/24 06:22:20;;;;;;;23.20;8.13;;;;;;;;;;5094849;28;20028;-77
2022/01/24 06:24:47;;;;;;;26.90;10.35;;;;;;;;;;5095187;28;20051;-77
2022/01/24 06:27:13;;;;;;;26.48;11.05;;;;;;;;;;5094666;28;20048;-78
2022/01/24 06:29:39;;;;;;;27.17;11.85;;;;;;;;;;5094799;28;20058;-78
2022/01/24 06:32:05;;;;;;;17.85;8.45;;;;;;;;;;5094359;28;20047;-74
2022/01/24 06:34:31;;;;;;;19.30;8.38;;;;;;;;;;5095017;28;20020;-74
2022/01/24 06:36:57;;;;;;;21.63;10.25;;;;;;;;;;5094806;28;20037;-76
2022/01/24 06:39:24;;;;;;;19.27;8.23;;;;;;;;;;5094830;28;20030;-77
2022/01/24 06:42:07;;;;;;;21.80;10.02;;;;;;;;;;5094855;28;20035;-74
2022/01/24 06:44:33;;;;;;;23.63;8.88;;;;;;;;;;5094734;28;20111;-76
2022/01/24 06:46:59;;;;;;;22.58;9.60;;;;;;;;;;5094662;28;20024;-75
2022/01/24 06:49:25;;;;;;;24.45;9.40;;;;;;;;;;5095999;28;20032;-75
2022/01/24 06:51:52;;;;;;;20.67;9.63;;;;;;;;;;5094618;28;20123;-73
2022/01/24 06:54:18;;;;;;;25.50;9.68;;;;;;;;;;5094716;28;20040;-77
2022/01/24 06:56:44;;;;;;;21.05;9.18;;;;;;;;;;5094494;28;20085;-75
2022/01/24 06:59:13;;;;;;;22.48;8.45;;;;;;;;;;5094291;28;20468;-75
2022/01/24 07:01:39;;;;;;;22.92;10.32;;;;;;;;;;5095548;28;20032;-76
2022/01/24 07:04:05;;;;;;;20.58;8.10;;;;;;;;;;5094366;28;20441;-76
2022/01/24 07:06:31;;;;;;;20.95;8.45;;;;;;;;;;5094218;28;20494;-76
2022/01/24 07:08:57;;;;;;;19.90;9.40;;;;;;;;;;5094329;28;20025;-76
2022/01/24 07:11:23;;;;;;;20.58;9.57;;;;;;;;;;5094201;28;20055;-77
2022/01/24 07:13:50;;;;;;;23.27;9.32;;;;;;;;;;5094261;28;20108;-72
2022/01/24 07:16:17;;;;;;;23.95;8.85;;;;;;;;;;5094083;28;20047;-74
2022/01/24 07:19:03;;;;;;;26.80;10.00;;;;;;;;;;5093994;28;20473;-74
2022/01/24 07:21:29;;;;;;;23.52;9.82;;;;;;;;;;5093913;28;20036;-77
2022/01/24 07:23:55;;;;;;;24.75;9.95;;;;;;;;;;5091756;28;20027;-76
2022/01/24 07:26:21;;;;;;;22.65;9.48;;;;;;;;;;5095045;28;20059;-72
2022/01/24 07:28:48;;;;;;;26.95;10.77;;;;;;;;;;5095145;28;20024;-74
2022/01/24 07:31:14;;;;;;;30.60;11.02;;;;;;;;;;5095450;28;20373;-75
2022/01/24 07:33:40;;;;;;;31.85;12.27;;;;;;;;;;5093551;28;20074;-77
2022/01/24 07:36:06;;;;;;;26.95;10.98;;;;;;;;;;5093672;28;20385;-76
2022/01/24 07:38:32;;;;;;;27.73;11.75;;;;;;;;;;5094633;28;20028;-76
2022/01/24 07:41:25;;;;;;;28.85;11.68;;;;;;;;;;5094763;28;20044;-74
2022/01/24 07:43:51;;;;;;;31.92;12.15;;;;;;;;;;5092798;28;20035;-76
2022/01/24 07:46:17;;;;;;;28.50;13.52;;;;;;;;;;5093625;28;20480;-78
2022/01/24 07:48:43;;;;;;;28.15;12.60;;;;;;;;;;5093503;28;20032;-76
2022/01/24 07:51:09;;;;;;;27.58;12.43;;;;;;;;;;5094877;28;20024;-76
2022/01/24 07:53:36;;;;;;;28.48;12.65;;;;;;;;;;5094957;28;20066;-74
2022/01/24 07:56:02;;;;;;;27.52;12.18;;;;;;;;;;5093111;28;20534;-75
2022/01/24 07:58:29;;;;;;;24.77;11.40;;;;;;;;;;5095020;28;20049;-74
2022/01/24 08:00:55;;;;;;;23.65;11.02;;;;;;;;;;5094658;28;20391;-77
2022/01/24 08:03:21;;;;;;;27.17;12.27;;;;;;;;;;5093126;28;20026;-72
2022/01/24 08:05:47;;;;;;;26.38;10.73;;;;;;;;;;5093277;28;20020;-76
2022/01/24 08:08:13;;;;;;;22.52;9.48;;;;;;;;;;5093229;28;20051;-72
2022/01/24 08:10:39;;;;;;;23.13;9.52;;;;;;;;;;5094442;28;20543;-74
2022/01/24 08:13:05;;;;;;;17.70;8.05;;;;;;;;;;5092962;28;20044;-76
2022/01/24 08:15:32;;;;;;;17.00;7.70;;;;;;;;;;5094413;28;20380;-76
2022/01/24 08:17:58;;;;;;;17.67;7.75;;;;;;;;;;5092611;28;20020;-73
2022/01/24 08:20:25;;;;;;;16.77;6.75;;;;;;;;;;5092681;28;20074;-77
2022/01/24 08:22:51;;;;;;;18.52;8.13;;;;;;;;;;5093034;28;20480;-71
2022/01/24 08:25:17;;;;;;;15.63;7.47;;;;;;;;;;5092924;28;20495;-73
2022/01/24 08:27:46;;;;;;;15.70;6.90;;;;;;;;;;5093924;28;20056;-72
2022/01/24 08:30:16;;;;;;;14.32;7.40;;;;;;;;;;5092783;28;20488;-72
2022/01/24 08:32:42;;;;;;;18.10;7.53;;;;;;;;;;5094282;28;20030;-72
2022/01/24 08:35:09;;;;;;;18.23;8.20;;;;;;;;;;5094069;28;20028;-75
2022/01/24 08:37:36;;;;;;;18.67;8.13;;;;;;;;;;5092543;28;20055;-72
2022/01/24 08:40:02;;;;;;;17.42;6.95;;;;;;;;;;5093514;28;20045;-72
2022/01/24 08:42:37;;;;;;;17.10;7.43;;;;;;;;;;5092555;28;20036;-70
2022/01/24 08:47:35;;;;;;;20.63;7.53;;;;;;;;;;5094300;28;20036;-71
2022/01/24 08:50:02;;;;;;;14.43;6.97;;;;;;;;;;5092374;28;20036;-78
2022/01/24 08:52:28;;;;;;;13.68;5.00;;;;;;;;;;5092472;28;20051;-76
2022/01/24 08:54:54;;;;;;;12.77;5.82;;;;;;;;;;5092245;28;20035;-74
2022/01/24 08:57:25;;;;;;;9.70;2.78;;;;;;;;;;5093961;28;20024;-77
2022/01/24 08:59:51;;;;;;;10.55;4.43;;;;;;;;;;5092094;28;20092;-76
2022/01/24 09:02:17;;;;;;;7.18;3.60;;;;;;;;;;5092149;28;20028;-73
2022/01/24 09:04:43;;;;;;;9.10;4.22;;;;;;;;;;5092308;28;20504;-75
2022/01/24 09:07:10;;;;;;;15.43;5.78;;;;;;;;;;5092307;28;20028;-73
2022/01/24 09:09:36;;;;;;;16.08;5.15;;;;;;;;;;5092071;28;20116;-72
2022/01/24 09:12:03;;;;;;;14.43;5.78;;;;;;;;;;5092066;28;20027;-72
2022/01/24 09:14:30;;;;;;;9.25;5.07;;;;;;;;;;5093416;28;20103;-73
2022/01/24 09:16:56;;;;;;;11.73;5.03;;;;;;;;;;5092154;28;20469;-75
2022/01/24 09:19:22;;;;;;;17.20;5.63;;;;;;;;;;5091928;28;20020;-75
2022/01/24 09:21:50;;;;;;;13.13;5.30;;;;;;;;;;5091942;28;20381;-72
2022/01/24 09:24:16;;;;;;;14.75;5.20;;;;;;;;;;5093763;28;20020;-75
2022/01/24 09:26:42;;;;;;;9.90;4.18;;;;;;;;;;5091858;28;20055;-75
2022/01/24 09:29:08;;;;;;;10.13;4.03;;;;;;;;;;5092032;28;20028;-71
2022/01/24 09:31:35;;;;;;;11.15;5.60;;;;;;;;;;5091999;28;20028;-72
2022/01/24 09:34:01;;;;;;;11.85;4.50;;;;;;;;;;5091939;28;20024;-75
2022/01/24 09:36:27;;;;;;;10.85;4.63;;;;;;;;;;5092546;28;20110;-72
2022/01/24 09:38:53;;;;;;;10.85;4.97;;;;;;;;;;5091997;28;20032;-75
2022/01/24 09:41:19;;;;;;;14.45;5.55;;;;;;;;;;5091664;28;20132;-72
2022/01/24 09:43:45;;;;;;;11.77;4.95;;;;;;;;;;5091686;28;20111;-73
2022/01/24 09:46:11;;;;;;;9.23;3.88;;;;;;;;;;5091800;28;20123;-73
2022/01/24 09:48:38;;;;;;;12.60;5.30;;;;;;;;;;5092947;28;20073;-75
2022/01/24 09:51:05;;;;;;;15.10;4.80;;;;;;;;;;5093117;28;20035;-73
2022/01/24 09:53:32;;;;;;;10.63;4.90;;;;;;;;;;5091777;28;20028;-73
2022/01/24 09:56:03;;;;;;;10.88;4.90;;;;;;;;;;5092855;28;20472;-76
2022/01/24 09:58:29;;;;;;;11.52;5.50;;;;;;;;;;5091761;28;20031;-73
2022/01/24 10:00:55;;;;;;;11.30;5.03;;;;;;;;;;5092808;28;20072;-76
2022/01/24 10:03:24;;;;;;;13.63;5.25;;;;;;;;;;5091774;28;20115;-72
2022/01/24 10:05:55;;;;;;;11.35;4.22;;;;;;;;;;5091590;28;20034;-71
2022/01/24 10:08:24;;;;;;;12.65;5.30;;;;;;;;;;5094188;28;20043;-76
2022/01/24 10:10:57;;;;;;;13.90;4.70;;;;;;;;;;5096737;28;20024;-71
2022/01/24 10:16:43;;;;;;;11.50;5.93;;;;;;;;;;5096733;28;20157;-73
2022/01/24 10:19:15;;;;;;;12.65;5.97;;;;;;;;;;5096621;28;20028;-76
2022/01/24 10:21:49;;;;;;;13.95;5.70;;;;;;;;;;5095122;28;20445;-74
2022/01/24 10:24:27;;;;;;;10.00;5.20;;;;;;;;;;5096323;28;20032;-76
2022/01/24 10:27:06;;;;;;;13.05;5.75;;;;;;;;;;5096585;28;20043;-73
2022/01/24 10:29:32;;;;;;;11.73;5.88;;;;;;;;;;5096425;28;20099;-72
2022/01/24 10:31:58;;;;;;;14.68;6.38;;;;;;;;;;5096249;28;20092;-76
2022/01/24 10:34:35;;;;;;;16.35;5.07;;;;;;;;;;5094993;28;20020;-76
2022/01/24 10:37:01;;;;;;;11.98;5.47;;;;;;;;;;5096607;28;20031;-72
2022/01/24 10:39:33;;;;;;;12.82;5.80;;;;;;;;;;5094827;28;20494;-74
2022/01/24 10:44:53;;;;;;;11.77;5.10;;;;;;;;;;5096180;28;20401;-70
2022/01/24 10:47:26;;;;;;;13.07;5.75;;;;;;;;;;5096060;28;20047;-77
2022/01/24 10:49:52;;;;;;;14.75;6.85;;;;;;;;;;5094705;28;20480;-72
2022/01/24 10:52:21;;;;;;;11.05;4.88;;;;;;;;;;5094700;28;20028;-73
2022/01/24 10:54:48;;;;;;;13.95;5.72;;;;;;;;;;5094484;28;20028;-71
2022/01/24 10:57:22;;;;;;;15.57;6.50;;;;;;;;;;5094545;28;20028;-72
2022/01/24 10:59:49;;;;;;;15.07;4.93;;;;;;;;;;5094086;28;20480;-72
2022/01/24 11:02:16;;;;;;;13.02;5.45;;;;;;;;;;5094566;28;20031;-74
2022/01/24 11:04:42;;;;;;;9.30;4.38;;;;;;;;;;5094474;28;20024;-72
2022/01/24 11:07:08;;;;;;;15.75;5.90;;;;;;;;;;5094427;28;20032;-72
2022/01/24 11:09:36;;;;;;;13.27;4.70;;;;;;;;;;5094418;28;20059;-71
2022/01/24 11:12:10;;;;;;;13.43;4.93;;;;;;;;;;5094163;28;20024;-75
2022/01/24 11:14:37;;;;;;;10.18;5.15;;;;;;;;;;5094308;28;20024;-74
2022/01/24 11:17:04;;;;;;;9.32;4.63;;;;;;;;;;5094143;28;20024;-74
2022/01/24 11:19:40;;;;;;;12.60;4.82;;;;;;;;;;5092812;28;20027;-72
2022/01/24 11:22:18;;;;;;;9.10;4.50;;;;;;;;;;5093985;28;20032;-72
2022/01/24 11:24:51;;;;;;;12.98;5.53;;;;;;;;;;5094098;28;20025;-77
2022/01/24 11:27:17;;;;;;;13.17;5.73;;;;;;;;;;5093524;28;20492;-75
2022/01/24 11:29:44;;;;;;;15.30;5.93;;;;;;;;;;5093976;28;20028;-72
2022/01/24 11:32:40;;;;;;;12.35;6.43;;;;;;;;;;5093712;28;20481;-71
2022/01/24 11:35:07;;;;;;;12.25;6.07;;;;;;;;;;5077435;28;20568;-73
2022/01/24 11:37:33;;;;;;;13.75;5.97;;;;;;;;;;5093777;28;20028;-72
2022/01/24 11:40:00;;;;;;;13.85;6.35;;;;;;;;;;5094848;28;20426;-72
2022/01/24 11:42:30;;;;;;;10.10;5.82;;;;;;;;;;5093730;28;20519;-73
2022/01/24 11:45:03;;;;;;;12.23;6.05;;;;;;;;;;5093676;28;20024;-71
2022/01/24 11:47:31;;;;;;;12.25;6.00;;;;;;;;;;5093677;28;20061;-70
2022/01/24 11:49:57;;;;;;;16.17;6.57;;;;;;;;;;5093447;28;20023;-70
2022/01/24 11:52:34;;;;;;;13.57;6.05;;;;;;;;;;5093573;28;20042;-72
2022/01/24 11:55:16;;;;;;;13.70;6.15;;;;;;;;;;5093457;28;20065;-71
2022/01/24 11:57:46;;;;;;;14.82;6.45;;;;;;;;;;5095113;28;20028;-72
2022/01/24 12:00:12;;;;;;;14.38;6.82;;;;;;;;;;5094337;28;20528;-76
2022/01/24 12:02:42;;;;;;;11.35;6.55;;;;;;;;;;5094645;28;20020;-75
2022/01/24 12:05:10;;;;;;;13.18;6.05;;;;;;;;;;5094552;28;20475;-72
2022/01/24 12:07:52;;;;;;;13.20;5.30;;;;;;;;;;5094517;28;20051;-72
2022/01/24 12:10:25;;;;;;;12.98;5.88;;;;;;;;;;5093255;28;20028;-74
2022/01/24 12:12:51;;;;;;;;;;;;;;;;;;5093435;28;20028;-77
2022/01/24 12:15:44;;;;;;;11.52;5.40;;;;;;;;;;5092978;28;19904;-71
2022/01/24 12:18:12;;;;;;;15.50;6.32;;;;;;;;;;5089097;28;20040;-71
2022/01/24 12:20:38;;;;;;;12.20;6.07;;;;;;;;;;5094373;28;20035;-73
2022/01/24 12:23:25;;;;;;;16.00;7.35;;;;;;;;;;5094342;28;20471;-71
2022/01/24 12:25:55;;;;;;;11.77;6.60;;;;;;;;;;5083263;28;20127;-74
2022/01/24 12:28:25;;;;;;;15.30;5.95;;;;;;;;;;5093883;28;20048;-77
2022/01/24 12:31:03;;;;;;;16.17;6.95;;;;;;;;;;5093812;28;20024;-71
2022/01/24 12:33:38;;;;;;;11.77;5.47;;;;;;;;;;5092814;28;20035;-71
2022/01/24 12:36:06;;;;;;;12.85;5.40;;;;;;;;;;5092653;28;20443;-71
2022/01/24 12:38:44;;;;;;;11.85;6.07;;;;;;;;;;5094349;28;20024;-71
2022/01/24 12:41:17;;;;;;;13.63;5.70;;;;;;;;;;5092452;28;20028;-71
2022/01/24 12:46:28;;;;;;;16.45;6.20;;;;;;;;;;5093905;28;20452;-73
2022/01/24 12:48:56;;;;;;;14.18;5.38;;;;;;;;;;5092359;28;20027;-71
2022/01/24 12:51:23;;;;;;;14.60;6.30;;;;;;;;;;5092468;28;20496;-72
2022/01/24 12:53:50;;;;;;;13.77;6.30;;;;;;;;;;5092411;28;20388;-72
2022/01/24 12:56:19;;;;;;;14.75;5.90;;;;;;;;;;5092389;28;20039;-71
2022/01/24 12:58:47;;;;;;;13.57;6.50;;;;;;;;;;5092394;28;20035;-72
2022/01/24 13:01:24;;;;;;;16.15;6.30;;;;;;;;;;5092138;28;20492;-71
2022/01/24 13:03:57;;;;;;;17.55;7.10;;;;;;;;;;5092226;28;20024;-72
2022/01/24 13:06:23;;;;;;;;;;;;;;;;;;5092704;28;20024;-72
2022/01/24 13:08:57;;;;;;;15.98;8.30;;;;;;;;;;5092253;28;19979;-72
2022/01/24 13:11:24;;;;;;;19.40;8.77;;;;;;;;;;5093477;28;20495;-74
2022/01/24 13:14:05;;;;;;;18.45;8.88;;;;;;;;;;5093342;28;20028;-71
2022/01/24 13:22:35;;;;;;;21.10;9.90;;;;;;;;;;5073264;28;20430;-72
2022/01/24 13:25:02;;;;;;;18.67;9.85;;;;;;;;;;5071977;28;20024;-72
2022/01/24 13:27:42;;;;;;;19.98;9.75;;;;;;;;;;5072642;28;20467;-71
2022/01/24 13:30:10;;;;;;;21.67;10.75;;;;;;;;;;5071614;28;20035;-76
2022/01/24 13:32:47;;;;;;;22.23;10.25;;;;;;;;;;5071835;28;20017;-72
2022/01/24 13:35:21;;;;;;;21.45;10.30;;;;;;;;;;5072936;28;20032;-73
2022/01/24 13:37:47;;;;;;;20.00;9.65;;;;;;;;;;5071852;28;20477;-73
2022/01/24 13:40:14;;;;;;;18.20;10.25;;;;;;;;;;5071602;28;20485;-71
2022/01/24 13:42:40;;;;;;;20.77;10.68;;;;;;;;;;5073081;28;20028;-71
2022/01/24 13:45:07;;;;;;;26.38;11.10;;;;;;;;;;5075746;28;20035;-72
2022/01/24 13:47:33;;;;;;;21.92;10.52;;;;;;;;;;5075682;28;20028;-71
2022/01/24 13:50:00;;;;;;;22.98;11.43;;;;;;;;;;5077086;28;20024;-72
2022/01/24 13:52:28;;;;;;;25.45;10.15;;;;;;;;;;5075631;28;20186;-72
2022/01/24 13:54:54;;;;;;;26.52;11.43;;;;;;;;;;5075854;28;20491;-74
2022/01/24 13:57:20;;;;;;;21.48;11.23;;;;;;;;;;5094837;28;20036;-71
2022/01/24 13:59:46;;;;;;;26.00;11.23;;;;;;;;;;5095556;28;20024;-71
2022/01/24 14:02:19;;;;;;;28.13;10.63;;;;;;;;;;5096959;28;20369;-71
2022/01/24 14:04:48;;;;;;;22.70;11.27;;;;;;;;;;5095645;28;20055;-72
2022/01/24 14:07:16;;;;;;;23.67;11.30;;;;;;;;;;5095499;28;20055;-71
2022/01/24 14:09:45;;;;;;;25.88;11.65;;;;;;;;;;5095652;28;20447;-70
2022/01/24 14:12:12;;;;;;;24.42;11.02;;;;;;;;;;5095208;28;20484;-72
2022/01/24 14:14:52;;;;;;;24.80;10.48;;;;;;;;;;5095414;28;20032;-73
2022/01/24 14:20:09;;;;;;;23.85;10.48;;;;;;;;;;5096725;28;20396;-70
2022/01/24 14:22:39;;;;;;;22.90;10.98;;;;;;;;;;5096677;28;20028;-71
2022/01/24 14:25:06;;;;;;;22.40;10.25;;;;;;;;;;5095008;28;20059;-70
2022/01/24 14:27:38;;;;;;;31.70;13.35;;;;;;;;;;5096462;28;20048;-72
2022/01/24 14:30:13;;;;;;;23.48;11.27;;;;;;;;;;5095045;28;20043;-71
2022/01/24 14:32:58;;;;;;;26.40;11.20;;;;;;;;;;5095094;28;20088;-70
2022/01/24 14:35:24;;;;;;;21.55;10.68;;;;;;;;;;5094972;28;20047;-71
2022/01/24 14:37:54;;;;;;;23.92;10.52;;;;;;;;;;5094970;28;20500;-78
2022/01/24 14:40:44;;;;;;;23.73;11.65;;;;;;;;;;5094022;28;20467;-79
2022/01/24 14:45:55;;;;;;;30.40;12.98;;;;;;;;;;5096562;28;20078;-79
2022/01/24 14:48:21;;;;;;;27.23;11.13;;;;;;;;;;5094992;28;20028;-78
2022/01/24 14:50:48;;;;;;;28.38;12.20;;;;;;;;;;5096078;28;20024;-80
2022/01/24 14:53:16;;;;;;;30.00;12.65;;;;;;;;;;5095829;28;20112;-73
2022/01/24 14:55:42;;;;;;;30.50;14.23;;;;;;;;;;5096245;28;20052;-80
2022/01/24 14:58:09;;;;;;;24.10;11.25;;;;;;;;;;5096275;28;20051;-78
2022/01/24 15:00:35;;;;;;;25.50;11.60;;;;;;;;;;5094640;28;20545;-79
2022/01/24 15:03:01;;;;;;;25.55;11.93;;;;;;;;;;5094642;28;20039;-78
2022/01/24 15:05:27;;;;;;;32.05;11.82;;;;;;;;;;5094745;28;20020;-71
2022/01/24 15:07:54;;;;;;;26.45;11.43;;;;;;;;;;5094507;28;20024;-80
2022/01/24 15:10:20;;;;;;;25.75;12.07;;;;;;;;;;5094558;28;20047;-79
2022/01/24 15:12:51;;;;;;;21.75;10.90;;;;;;;;;;5094568;28;20511;-79
2022/01/24 15:15:20;;;;;;;26.10;12.13;;;;;;;;;;5094500;28;20028;-80
2022/01/24 15:25:54;;;;;;;27.00;12.27;;;;;;;;;;5096181;28;20043;-75
2022/01/24 15:28:20;;;;;;;29.48;13.10;;;;;;;;;;5094916;28;20054;-79
2022/01/24 15:30:46;;;;;;;35.17;15.00;;;;;;;;;;5095624;28;20028;-78
2022/01/24 15:33:12;;;;;;;30.48;14.65;;;;;;;;;;5094024;28;20028;-73
2022/01/24 15:35:38;;;;;;;34.22;15.00;;;;;;;;;;5093973;28;20057;-78
2022/01/24 15:38:05;;;;;;;33.63;15.02;;;;;;;;;;5094024;28;20027;-76
2022/01/24 15:40:31;;;;;;;33.05;14.63;;;;;;;;;;5093765;28;20024;-78
2022/01/24 15:45:33;;;;;;;33.88;12.60;;;;;;;;;;5095416;28;20469;-71
2022/01/24 15:48:00;;;;;;;37.88;14.57;;;;;;;;;;5093875;28;20028;-77
2022/01/24 15:50:26;;;;;;;43.28;18.73;;;;;;;;;;5093744;28;20035;-73
2022/01/24 15:52:53;;;;;;;40.90;16.75;;;;;;;;;;5094925;28;20036;-76
2022/01/24 15:55:25;;;;;;;37.40;15.00;;;;;;;;;;5093725;28;20024;-78
2022/01/24 15:57:51;;;;;;;38.22;16.00;;;;;;;;;;5093579;28;20369;-79
2022/01/24 16:00:25;;;;;;;39.08;16.40;;;;;;;;;;5095298;28;20046;-77
2022/01/24 16:02:52;;;;;;;35.63;14.88;;;;;;;;;;5093536;28;20035;-78
2022/01/24 16:05:20;;;;;;;46.40;16.88;;;;;;;;;;5093992;28;20099;-73
2022/01/24 16:07:47;;;;;;;45.35;17.42;;;;;;;;;;5093379;28;20491;-73
2022/01/24 16:10:14;;;;;;;42.70;17.02;;;;;;;;;;5093309;28;20502;-76
2022/01/24 16:12:44;;;;;;;35.30;15.90;;;;;;;;;;5093296;28;20024;-73
2022/01/24 16:15:13;;;;;;;34.88;14.30;;;;;;;;;;5094393;28;20426;-79
2022/01/24 16:17:39;;;;;;;35.70;16.20;;;;;;;;;;5093038;28;20028;-77
2022/01/24 16:20:19;;;;;;;37.85;15.63;;;;;;;;;;5092705;28;20027;-78
2022/01/24 16:22:58;;;;;;;31.58;13.63;;;;;;;;;;5092968;28;20032;-78
2022/01/24 16:25:36;;;;;;;34.58;15.07;;;;;;;;;;5093044;28;20027;-81
2022/01/24 16:28:03;;;;;;;37.20;15.13;;;;;;;;;;5092816;28;20056;-72
2022/01/24 16:30:30;;;;;;;40.17;15.52;;;;;;;;;;5094749;28;20088;-76
2022/01/24 16:33:00;;;;;;;37.20;14.80;;;;;;;;;;5092899;28;20036;-76
2022/01/24 16:35:26;;;;;;;36.55;13.23;;;;;;;;;;5092827;28;20044;-76
2022/01/24 16:37:53;;;;;;;33.47;13.60;;;;;;;;;;5094648;28;20533;-74